createdAt,value
2022-10-07T00:02:43.563Z,2.42
2022-10-07T00:05:36.977Z,1.80
2022-10-07T00:08:29.960Z,2.20
2022-10-07T00:11:26.459Z,2.17
2022-10-07T00:14:19.853Z,1.73
2022-10-07T00:17:13.173Z,2.20
2022-10-07T00:20:06.802Z,1.88
2022-10-07T00:22:59.479Z,1.92
2022-10-07T00:25:53.006Z,1.77
2022-10-07T00:28:47.795Z,2.15
2022-10-07T00:31:41.586Z,1.85
2022-10-07T00:34:34.731Z,1.90
2022-10-07T00:37:27.921Z,2.15
2022-10-07T00:40:20.519Z,2.20
2022-10-07T00:43:26.238Z,2.00
2022-10-07T00:46:29.523Z,2.20
2022-10-07T00:49:23.522Z,2.20
2022-10-07T00:52:20.371Z,1.88
2022-10-07T00:55:17.763Z,2.00
2022-10-07T00:58:11.173Z,2.20
2022-10-07T01:01:04.555Z,1.90
2022-10-07T01:03:59.387Z,2.08
2022-10-07T01:06:53.041Z,2.03
2022-10-07T01:09:46.574Z,2.45
2022-10-07T01:12:51.397Z,2.08
2022-10-07T01:15:52.156Z,2.15
2022-10-07T01:18:55.034Z,2.22
2022-10-07T01:22:02.782Z,2.00
2022-10-07T01:25:12.430Z,1.73
2022-10-07T01:28:10.995Z,1.95
2022-10-07T01:31:07.305Z,1.95
2022-10-07T01:34:02.866Z,1.77
2022-10-07T01:36:57.471Z,1.98
2022-10-07T01:39:54.589Z,2.20
2022-10-07T01:42:48.675Z,2.13
2022-10-07T01:45:43.857Z,2.50
2022-10-07T01:48:37.072Z,2.22
2022-10-07T01:51:32.763Z,1.98
2022-10-07T01:54:35.202Z,1.88
2022-10-07T01:57:37.775Z,1.85
2022-10-07T02:00:31.155Z,2.22
2022-10-07T02:03:55.977Z,1.88
2022-10-07T02:06:54.631Z,1.83
2022-10-07T02:09:53.667Z,2.03
2022-10-07T02:12:52.155Z,1.80
2022-10-07T02:15:49.134Z,1.88
2022-10-07T02:18:48.006Z,2.10
2022-10-07T02:21:44.272Z,1.92
2022-10-07T02:24:38.831Z,1.77
2022-10-07T02:27:35.572Z,1.88
2022-10-07T02:30:29.029Z,1.85
2022-10-07T02:33:25.680Z,1.83
2022-10-07T02:36:23.288Z,1.55
2022-10-07T02:39:17.348Z,1.73
2022-10-07T02:42:17.559Z,1.90
2022-10-07T02:45:18.037Z,1.90
2022-10-07T02:48:18.099Z,1.85
2022-10-07T02:51:21.043Z,1.80
2022-10-07T02:54:23.089Z,2.00
2022-10-07T02:57:19.705Z,1.70
2022-10-07T03:00:14.998Z,2.05
2022-10-07T03:03:08.797Z,1.88
2022-10-07T03:06:01.757Z,1.60
2022-10-07T03:08:57.376Z,2.17
2022-10-07T03:11:52.359Z,2.05
2022-10-07T03:14:49.746Z,1.73
2022-10-07T03:17:43.143Z,2.00
2022-10-07T03:20:37.101Z,1.60
2022-10-07T03:23:31.410Z,1.52
2022-10-07T03:26:24.965Z,1.98
2022-10-07T03:29:19.616Z,1.75
2022-10-07T03:32:13.048Z,2.13
2022-10-07T03:35:06.802Z,1.42
2022-10-07T03:37:59.901Z,1.73
2022-10-07T03:40:52.800Z,1.73
2022-10-07T03:43:46.415Z,2.08
2022-10-07T03:46:41.516Z,2.20
2022-10-07T03:49:35.652Z,2.38
2022-10-07T03:52:28.924Z,2.25
2022-10-07T03:55:21.680Z,2.33
2022-10-07T03:58:15.093Z,2.13
2022-10-07T04:01:09.451Z,2.28
2022-10-07T04:04:04.040Z,2.20
2022-10-07T04:06:57.205Z,2.80
2022-10-07T04:09:50.057Z,1.98
2022-10-07T04:12:43.451Z,2.20
2022-10-07T04:15:37.787Z,2.00
2022-10-07T04:18:31.018Z,2.20
2022-10-07T04:21:25.319Z,2.47
2022-10-07T04:24:17.983Z,2.15
2022-10-07T04:27:23.451Z,2.78
2022-10-07T04:30:26.599Z,2.40
2022-10-07T04:33:21.258Z,2.38
2022-10-07T04:36:14.905Z,1.83
2022-10-07T04:39:09.487Z,1.85
2022-10-07T04:42:03.541Z,2.38
2022-10-07T04:44:57.069Z,2.38
2022-10-07T04:47:50.089Z,2.40
2022-10-07T04:50:43.184Z,1.85
2022-10-07T04:53:37.132Z,2.40
2022-10-07T04:56:31.269Z,2.60
2022-10-07T04:59:26.179Z,1.95
2022-10-07T05:02:22.091Z,2.55
2022-10-07T05:05:15.474Z,2.25
2022-10-07T05:08:09.125Z,2.33
2022-10-07T05:11:03.512Z,1.90
2022-10-07T05:13:58.424Z,2.00
2022-10-07T05:16:52.932Z,2.05
2022-10-07T05:19:45.904Z,2.35
2022-10-07T05:22:39.504Z,1.98
2022-10-07T05:25:33.315Z,2.33
2022-10-07T05:28:27.063Z,2.28
2022-10-07T05:31:21.926Z,1.80
2022-10-07T05:34:15.385Z,2.00
2022-10-07T05:37:07.974Z,1.95
2022-10-07T05:40:01.016Z,2.20
2022-10-07T05:42:54.078Z,1.95
2022-10-07T05:45:47.535Z,2.10
2022-10-07T05:48:46.274Z,1.75
2022-10-07T05:51:39.329Z,1.70
2022-10-07T05:54:33.098Z,1.85
2022-10-07T05:57:26.738Z,2.33
2022-10-07T06:00:20.863Z,1.67
2022-10-07T06:03:14.076Z,1.67
2022-10-07T06:06:08.885Z,1.95
2022-10-07T06:09:16.302Z,1.90
2022-10-07T06:12:28.597Z,2.10
2022-10-07T06:15:21.762Z,1.98
2022-10-07T06:18:15.417Z,2.03
2022-10-07T06:21:09.156Z,1.50
2022-10-07T06:24:02.038Z,1.92
2022-10-07T06:26:56.059Z,2.00
2022-10-07T06:29:49.033Z,1.45
2022-10-07T06:32:42.332Z,1.95
2022-10-07T06:35:35.082Z,1.58
2022-10-07T06:38:29.342Z,1.63
2022-10-07T06:41:22.959Z,1.67
2022-10-07T06:44:16.103Z,1.90
2022-10-07T06:47:11.874Z,1.50
2022-10-07T06:50:05.914Z,1.45
2022-10-07T06:52:59.676Z,1.88
2022-10-07T06:55:57.768Z,2.20
2022-10-07T06:58:51.263Z,1.95
2022-10-07T07:01:43.962Z,1.73
2022-10-07T07:04:37.395Z,2.15
2022-10-07T07:07:30.036Z,1.73
2022-10-07T07:10:23.423Z,1.70
2022-10-07T07:13:17.800Z,2.30
2022-10-07T07:16:11.355Z,1.70
2022-10-07T07:19:08.415Z,1.92
2022-10-07T07:22:01.127Z,1.92
2022-10-07T07:24:54.171Z,1.50
2022-10-07T07:27:48.823Z,1.85
2022-10-07T07:30:45.495Z,1.80
2022-10-07T07:33:40.924Z,1.60
2022-10-07T07:36:36.117Z,1.83
2022-10-07T07:39:28.918Z,2.13
2022-10-07T07:42:22.727Z,1.83
2022-10-07T07:45:17.998Z,2.30
2022-10-07T07:48:15.182Z,1.85
2022-10-07T07:51:10.724Z,1.90
2022-10-07T07:54:04.725Z,1.58
2022-10-07T07:56:59.103Z,1.63
2022-10-07T07:59:52.450Z,1.80
2022-10-07T08:02:45.162Z,1.52
2022-10-07T08:05:39.970Z,1.48
2022-10-07T08:08:33.594Z,1.52
2022-10-07T08:11:29.595Z,1.50
2022-10-07T08:14:23.455Z,1.67
2022-10-07T08:17:17.972Z,1.52
2022-10-07T08:20:11.963Z,1.67
2022-10-07T08:23:07.125Z,1.45
2022-10-07T08:26:01.721Z,1.65
2022-10-07T08:28:55.467Z,1.67
2022-10-07T08:31:48.539Z,1.27
2022-10-07T08:34:41.147Z,2.22
2022-10-07T08:37:34.169Z,2.15
2022-10-07T08:40:28.553Z,1.42
2022-10-07T08:43:24.632Z,1.50
2022-10-07T08:46:21.034Z,1.50
2022-10-07T08:49:17.375Z,2.03
2022-10-07T08:52:28.212Z,1.98
2022-10-07T08:55:28.974Z,2.00
2022-10-07T08:58:40.849Z,1.67
2022-10-07T09:01:44.830Z,1.92
2022-10-07T09:04:54.776Z,2.15
2022-10-07T09:07:52.950Z,1.90
2022-10-07T09:10:50.532Z,2.20
2022-10-07T09:13:49.020Z,1.83
2022-10-07T09:16:46.264Z,1.58
2022-10-07T09:19:44.371Z,1.85
2022-10-07T09:22:39.928Z,1.67
2022-10-07T09:25:34.840Z,1.90
2022-10-07T09:28:31.414Z,1.58
2022-10-07T09:31:26.218Z,1.98
2022-10-07T09:34:23.188Z,1.95
2022-10-07T09:37:20.561Z,2.30
2022-10-07T09:40:31.471Z,1.63
2022-10-07T09:43:24.604Z,2.10
2022-10-07T09:46:32.986Z,1.75
2022-10-07T09:49:40.916Z,1.63
2022-10-07T09:52:34.073Z,1.95
2022-10-07T09:55:37.429Z,1.80
2022-10-07T09:58:32.007Z,1.83
2022-10-07T10:01:26.800Z,1.85
2022-10-07T10:04:24.916Z,1.75
2022-10-07T10:07:21.077Z,2.08
2022-10-07T10:10:19.934Z,1.65
2022-10-07T10:13:27.223Z,1.48
2022-10-07T10:16:36.037Z,2.00
2022-10-07T10:19:32.508Z,1.60
2022-10-07T10:22:31.529Z,2.25
2022-10-07T10:25:51.335Z,1.63
2022-10-07T10:28:51.040Z,1.70
2022-10-07T10:32:02.781Z,2.22
2022-10-07T10:35:03.821Z,1.60
2022-10-07T10:38:20.732Z,2.00
2022-10-07T10:41:24.284Z,2.05
2022-10-07T10:44:32.836Z,1.58
2022-10-07T10:47:37.199Z,2.00
2022-10-07T10:50:34.541Z,1.83
2022-10-07T10:53:38.193Z,1.88
2022-10-07T10:56:41.393Z,1.50
2022-10-07T10:59:58.617Z,1.58
2022-10-07T11:03:12.699Z,1.63
2022-10-07T11:06:09.841Z,1.90
2022-10-07T11:09:05.866Z,2.25
2022-10-07T11:12:04.679Z,2.00
2022-10-07T11:15:03.619Z,1.65
2022-10-07T11:18:03.125Z,2.42
2022-10-07T11:20:59.340Z,1.73
2022-10-07T11:24:02.072Z,1.77
2022-10-07T11:26:59.617Z,1.98
2022-10-07T11:30:00.019Z,2.15
2022-10-07T11:32:59.955Z,2.28
2022-10-07T11:35:58.440Z,1.73
2022-10-07T11:38:53.465Z,2.13
2022-10-07T11:41:53.145Z,1.85
2022-10-07T11:44:54.498Z,1.70
2022-10-07T11:47:50.667Z,1.80
2022-10-07T11:50:57.238Z,1.88
2022-10-07T11:53:54.151Z,2.03
2022-10-07T11:56:50.555Z,1.67
2022-10-07T11:59:46.128Z,1.92
2022-10-07T12:02:46.916Z,1.80
2022-10-07T12:06:11.481Z,1.90
2022-10-07T12:09:37.730Z,1.83
2022-10-07T12:12:48.579Z,1.80
2022-10-07T12:15:43.373Z,1.70
2022-10-07T12:18:36.630Z,2.42
2022-10-07T12:21:31.263Z,2.00
2022-10-07T12:24:24.678Z,1.50
2022-10-07T12:27:19.090Z,2.22
2022-10-07T12:30:50.431Z,2.05
2022-10-07T12:33:57.418Z,2.15
2022-10-07T12:36:50.400Z,1.50
2022-10-07T12:39:43.594Z,1.60
2022-10-07T12:42:36.915Z,1.90
2022-10-07T12:45:31.992Z,1.58
2022-10-07T12:48:31.366Z,1.73
2022-10-07T12:51:28.022Z,1.65
2022-10-07T12:54:29.912Z,1.80
2022-10-07T12:57:26.142Z,1.63
2022-10-07T13:00:22.974Z,2.05
2022-10-07T13:03:46.580Z,1.77
2022-10-07T13:07:24.466Z,1.92
2022-10-07T13:10:38.584Z,1.63
2022-10-07T13:13:37.527Z,1.65
2022-10-07T13:16:35.721Z,1.70
2022-10-07T13:19:36.093Z,1.90
2022-10-07T13:22:30.723Z,1.83
2022-10-07T13:25:23.685Z,1.50
2022-10-07T13:28:19.291Z,1.35
2022-10-07T13:31:15.431Z,1.55
2022-10-07T13:34:17.909Z,2.08
2022-10-07T13:37:30.274Z,1.67
2022-10-07T13:40:28.539Z,1.55
2022-10-07T13:43:24.575Z,1.67
2022-10-07T13:46:17.755Z,1.60
2022-10-07T13:49:22.535Z,1.70
2022-10-07T13:52:22.731Z,1.75
2022-10-07T13:55:30.580Z,1.50
2022-10-07T13:58:23.563Z,1.90
2022-10-07T14:01:16.873Z,2.00
2022-10-07T14:04:18.816Z,1.33
2022-10-07T14:07:19.307Z,1.60
2022-10-07T14:10:13.580Z,1.58
2022-10-07T14:13:09.018Z,1.63
2022-10-07T14:16:02.492Z,1.83
2022-10-07T14:18:56.963Z,1.52
2022-10-07T14:21:50.630Z,1.30
2022-10-07T14:24:51.523Z,1.60
2022-10-07T14:28:16.852Z,1.50
2022-10-07T14:31:36.733Z,1.42
2022-10-07T14:34:46.757Z,1.42
2022-10-07T14:37:39.477Z,1.33
2022-10-07T14:40:32.662Z,1.30
2022-10-07T14:43:26.239Z,1.35
2022-10-07T14:46:23.324Z,1.20
2022-10-07T14:49:17.586Z,1.30
2022-10-07T14:52:14.492Z,1.10
2022-10-07T14:55:14.548Z,1.20
2022-10-07T14:58:09.674Z,1.20
2022-10-07T15:01:02.781Z,1.50
2022-10-07T15:03:57.116Z,1.38
2022-10-07T15:06:51.149Z,1.50
2022-10-07T15:09:46.691Z,1.42
2022-10-07T15:12:39.481Z,1.20
2022-10-07T15:15:32.831Z,1.52
2022-10-07T15:18:25.607Z,1.50
2022-10-07T15:21:19.859Z,1.40
2022-10-07T15:24:12.828Z,1.35
2022-10-07T15:27:06.558Z,1.25
2022-10-07T15:30:00.116Z,1.55
2022-10-07T15:32:56.090Z,1.40
2022-10-07T15:35:49.480Z,1.25
2022-10-07T15:38:43.663Z,1.70
2022-10-07T15:41:39.022Z,1.58
2022-10-07T15:44:32.599Z,1.63
2022-10-07T15:47:27.148Z,1.48
2022-10-07T15:50:20.724Z,1.50
2022-10-07T15:53:14.517Z,1.92
2022-10-07T15:56:10.165Z,1.92
2022-10-07T15:59:04.326Z,1.75
2022-10-07T16:01:57.953Z,1.38
2022-10-07T16:04:52.125Z,2.20
2022-10-07T16:07:45.857Z,1.70
2022-10-07T16:10:38.920Z,1.92
2022-10-07T16:13:35.020Z,1.38
2022-10-07T16:16:31.031Z,1.50
2022-10-07T16:19:24.747Z,2.08
2022-10-07T16:22:17.982Z,1.65
2022-10-07T16:25:12.776Z,2.03
2022-10-07T16:28:23.528Z,1.70
2022-10-07T16:31:18.054Z,1.70
2022-10-07T16:34:13.496Z,1.77
2022-10-07T16:37:07.120Z,1.83
2022-10-07T16:40:00.635Z,1.75
2022-10-07T16:42:53.743Z,1.60
2022-10-07T16:45:46.583Z,1.58
2022-10-07T16:48:43.840Z,1.45
2022-10-07T16:51:38.118Z,1.80
2022-10-07T16:54:35.154Z,2.20
2022-10-07T16:57:28.517Z,2.30
2022-10-07T17:00:23.004Z,2.55
2022-10-07T17:03:16.595Z,2.25
2022-10-07T17:06:14.232Z,2.28
2022-10-07T17:09:07.638Z,2.60
2022-10-07T17:12:00.930Z,2.38
2022-10-07T17:14:53.341Z,2.35
2022-10-07T17:17:47.312Z,2.60
2022-10-07T17:20:40.960Z,2.90
2022-10-07T17:23:35.836Z,3.13
2022-10-07T17:26:29.000Z,2.63
2022-10-07T17:29:24.894Z,2.35
2022-10-07T17:32:17.828Z,2.63
2022-10-07T17:35:11.355Z,3.08
2022-10-07T17:38:05.740Z,3.58
2022-10-07T17:41:00.616Z,3.03
2022-10-07T17:43:55.714Z,3.15
2022-10-07T17:46:50.320Z,3.20
2022-10-07T17:49:44.107Z,2.97
2022-10-07T17:52:37.738Z,2.58
2022-10-07T17:55:33.393Z,3.28
2022-10-07T17:58:29.531Z,2.83
2022-10-07T18:01:26.917Z,2.65
2022-10-07T18:04:24.560Z,3.17
2022-10-07T18:07:19.027Z,3.33
2022-10-07T18:10:12.398Z,3.15
2022-10-07T18:13:23.192Z,3.13
2022-10-07T18:16:18.656Z,3.25
2022-10-07T18:19:11.956Z,3.67
2022-10-07T18:22:04.574Z,3.33
2022-10-07T18:24:58.376Z,3.78
2022-10-07T18:27:52.899Z,3.30
2022-10-07T18:30:45.808Z,3.63
2022-10-07T18:33:40.230Z,3.90
2022-10-07T18:36:35.542Z,4.03
2022-10-07T18:39:29.634Z,3.65
2022-10-07T18:42:22.845Z,4.35
2022-10-07T18:45:15.558Z,4.00
2022-10-07T18:48:09.152Z,4.80
2022-10-07T18:51:04.589Z,4.63
2022-10-07T18:53:57.932Z,4.53
2022-10-07T18:56:52.034Z,4.25
2022-10-07T18:59:45.022Z,4.72
2022-10-07T19:02:38.293Z,4.85
2022-10-07T19:05:33.971Z,4.80
2022-10-07T19:08:29.787Z,5.07
2022-10-07T19:11:23.263Z,5.22
2022-10-07T19:14:17.253Z,4.75
2022-10-07T19:17:11.571Z,5.45
2022-10-07T19:20:04.762Z,4.57
2022-10-07T19:22:58.042Z,5.20
2022-10-07T19:25:54.527Z,5.60
2022-10-07T19:28:48.208Z,5.95
2022-10-07T19:31:43.972Z,5.60
2022-10-07T19:34:37.570Z,5.85
2022-10-07T19:37:31.072Z,5.80
2022-10-07T19:40:24.488Z,6.10
2022-10-07T19:43:19.528Z,6.28
2022-10-07T19:46:12.696Z,6.50
2022-10-07T19:49:07.272Z,5.80
2022-10-07T19:52:01.031Z,6.68
2022-10-07T19:54:54.797Z,7.22
2022-10-07T19:57:49.894Z,6.30
2022-10-07T20:00:44.770Z,7.28
2022-10-07T20:03:38.306Z,7.63
2022-10-07T20:06:32.254Z,8.45
2022-10-07T20:09:25.908Z,8.68
2022-10-07T20:12:19.521Z,7.47
2022-10-07T20:15:13.413Z,7.95
2022-10-07T20:18:08.863Z,9.10
2022-10-07T20:21:02.715Z,9.73
2022-10-07T20:23:58.269Z,10.85
2022-10-07T20:26:51.867Z,11.32
2022-10-07T20:29:58.000Z,11.18
2022-10-07T20:32:50.973Z,12.80
2022-10-07T20:35:46.144Z,12.45
2022-10-07T20:38:57.482Z,12.65
2022-10-07T20:42:09.212Z,12.48
2022-10-07T20:45:04.126Z,13.02
2022-10-07T20:47:59.445Z,13.13
2022-10-07T20:50:54.354Z,13.07
2022-10-07T20:53:49.779Z,14.50
2022-10-07T20:56:42.737Z,14.57
2022-10-07T20:59:36.333Z,14.85
2022-10-07T21:02:29.870Z,12.93
2022-10-07T21:05:23.026Z,13.35
2022-10-07T21:08:18.371Z,12.43
2022-10-07T21:11:11.705Z,11.55
2022-10-07T21:14:04.812Z,12.27
2022-10-07T21:16:58.722Z,12.55
2022-10-07T21:19:52.289Z,12.05
2022-10-07T21:22:46.012Z,10.52
2022-10-07T21:25:41.474Z,12.52
2022-10-07T21:28:36.697Z,12.07
2022-10-07T21:31:31.264Z,12.90
2022-10-07T21:34:25.565Z,11.55
2022-10-07T21:37:18.659Z,11.75
2022-10-07T21:40:11.723Z,11.85
2022-10-07T21:43:06.021Z,12.65
2022-10-07T21:45:59.193Z,11.02
2022-10-07T21:48:54.221Z,10.80
2022-10-07T21:51:47.701Z,10.60
2022-10-07T21:54:41.079Z,10.75
2022-10-07T21:57:33.970Z,8.85
2022-10-07T22:00:28.295Z,9.60
2022-10-07T22:03:21.635Z,8.43
2022-10-07T22:06:17.004Z,8.25
2022-10-07T22:09:09.821Z,7.65
2022-10-07T22:12:03.035Z,8.57
2022-10-07T22:14:55.614Z,8.32
2022-10-07T22:17:50.933Z,7.82
2022-10-07T22:20:44.411Z,7.53
2022-10-07T22:23:38.139Z,7.78
2022-10-07T22:26:32.850Z,7.25
2022-10-07T22:29:25.822Z,6.93
2022-10-07T22:32:19.192Z,7.63
2022-10-07T22:35:30.572Z,6.68
2022-10-07T22:38:24.297Z,6.45
2022-10-07T22:41:19.740Z,7.35
2022-10-07T22:44:13.439Z,5.95
2022-10-07T22:47:06.999Z,6.07
2022-10-07T22:49:59.763Z,6.13
2022-10-07T22:52:54.452Z,5.68
2022-10-07T22:55:48.086Z,5.70
2022-10-07T22:58:42.389Z,6.28
2022-10-07T23:01:36.552Z,6.07
2022-10-07T23:04:30.062Z,5.85
2022-10-07T23:07:23.092Z,6.10
2022-10-07T23:10:17.552Z,6.30
2022-10-07T23:13:10.617Z,6.38
2022-10-07T23:16:06.012Z,6.35
2022-10-07T23:18:59.743Z,6.57
2022-10-07T23:21:52.744Z,6.05
2022-10-07T23:24:46.070Z,6.70
2022-10-07T23:27:42.113Z,6.57
2022-10-07T23:30:38.382Z,5.80
2022-10-07T23:33:32.970Z,6.35
2022-10-07T23:36:26.704Z,6.55
2022-10-07T23:39:19.875Z,6.65
2022-10-07T23:42:13.202Z,6.63
2022-10-07T23:45:08.503Z,6.28
2022-10-07T23:48:02.198Z,6.07
2022-10-07T23:50:55.784Z,6.85
2022-10-07T23:53:49.406Z,6.43
2022-10-07T23:56:43.097Z,7.20
2022-10-07T23:59:36.314Z,6.00
